Aérodrome :
LOGIN :

S'inscrire | Disclaimer

   EN    FR    IT 

 










Légende :    VFR   VFR Marginal   IFR   IFR Intensif   IFR Très Intensif
Visi : 
Plafond : 
>= 8 km
>= 3000ft
5 à 8 km
1000 à 3000 ft
1500m à 5 km
500 à 1000 ft
800 à 1500m
200 à 500 ft
< 800m
< 200 ft
Symboles :   Orages  Brouillard  Fortes neiges  Fortes précipitations  Vent > 20 kt
SIGMETs :   Divers  Orages  Givrage  Turbulence  Onde Orograph.  Cendres Volcan.







- Altitude de l'aérodrome : 13 ft
- Code IATA : LYX
- Voir les cartes d'approche


EGMD - Lydd

DERNIER METAR :
  • 181850Z AUTO 19023KT 6000 -RA SCT013/// SCT018/// BKN032/// 08/07 Q1006 RERA

METARs EXPIRÉS :
  • 181820Z 19021KT 6000 RA FEW020 BKN038 08/07 Q1006
  • 181750Z 18022KT 9999 -RA BKN048 09/06 Q1006
  • 181720Z 18020G30KT CAVOK 10/06 Q1006
  • 181650Z 17024KT 9999 -RA NSC 09/06 Q1006
  • 181620Z 16021KT CAVOK 09/05 Q1006
  • 181550Z 16021KT CAVOK 09/06 Q1007

TAF AMD TAF EGMD
Valide du 18 à 18h jusqu'au 19 à 03h UTC


181833Z 1818/1903 17020G30KT 9999 SCT013
TEMPO 1818/1824 6000 RA
PROB30
TEMPO 1820/1823 3000 +RA BKN009
BECMG 1821/1824 23015KT
TEMPO 1821/1824 23018G30KT
PROB30
TEMPO 1822/1824 8000 -SHRA BKN010
TEMPO 1900/1903 6000 SHRA BKN012CB
ATIS : +44 1797 322 422
Pas de NOTAMs connus pour ce terrain.
2 SIGMETs publiés pour la FIR London (EGTT) :
 
Onde orographique forte
EGTT SIGMET 09 VALID 181900/182300 EGRR
EGTT LONDON FIR SEV MTW FCST WI N5220 W00530 - N5500 W00530 - N5500 W00015 - N5024 W00255 - N4959 W00548 - N5220 W00530 FL030/250 STNR WKN=
Onde orographique forte
EGTT SIGMET 08 VALID 181500/181900 EGRR
EGTT LONDON FIR SEV MTW FCST WI N5220 W00530 - N5500 W00530 - N5500 W00015 - N5024 W00255 - N4959 W00548 - N5220 W00530 FL030/250 STNR WKN=



MET'MAP, la Météo Aéronautique d'un coup d'oeil ! - Copyright ORBIFLY Décembre 2007 - Disclaimer

ORBIFLY MET'MAP TEAM :

Programmation & Développement : Alexandra Zaïnal
Conception & Développement : Baudouin d'Aumeries
Co-Programmation & Développement : Marc-Olivier Méhu
Soutien technique & logistique : Manuel Goepfert

Contact : metmap@orbifly.com




SOURCES & CREDITS :

   NOAA